Time;durP1;ratioP1;P1;durP2;ratioP2;P2;SDS_P1;SDS_P2;PMS_P1;PMS_P2;Temp;Humidity;BMP_temperature;BMP_pressure;BME280_temperature;BME280_humidity;BME280_pressure;Samples;Min_cycle;Max_cycle;Signal;HPM_P1;HPM_P2
2022/10/11 00:01:05;;;;;;;18.20;10.60;;;;;;;7.88;71.95;100338.67;103605;1297;138677;-84
2022/10/11 00:03:39;;;;;;;18.20;9.40;;;;;;;7.86;71.94;100337.52;104575;1294;97826;-83
2022/10/11 00:06:08;;;;;;;16.00;9.70;;;;;;;7.84;71.92;100340.16;103368;1297;138073;-82
2022/10/11 00:08:37;;;;;;;15.80;9.90;;;;;;;7.81;72.11;100342.64;103495;1292;108694;-84
2022/10/11 00:11:07;;;;;;;18.60;11.00;;;;;;;7.79;72.11;100338.86;103297;1301;140690;-85
2022/10/11 00:13:36;;;;;;;16.10;10.10;;;;;;;7.77;72.23;100339.95;103465;1291;97940;-83
2022/10/11 00:16:09;;;;;;;16.70;9.60;;;;;;;7.75;72.21;100336.17;103685;1301;98466;-81
2022/10/11 00:18:38;;;;;;;19.50;9.90;;;;;;;7.73;72.17;100330.70;104213;1284;138832;-87
2022/10/11 00:21:10;;;;;;;19.30;10.40;;;;;;;7.71;72.12;100335.21;104590;1294;109200;-82
2022/10/11 00:23:40;;;;;;;17.00;9.90;;;;;;;7.69;72.29;100336.11;103322;1291;138360;-86
2022/10/11 00:26:10;;;;;;;17.10;9.80;;;;;;;7.67;72.25;100334.76;103423;1300;97838;-81
2022/10/11 00:28:40;;;;;;;15.70;10.30;;;;;;;7.66;72.27;100336.35;103475;1301;98447;-85
2022/10/11 00:31:10;;;;;;;19.60;10.10;;;;;;;7.64;72.41;100337.41;103318;1298;138121;-83
2022/10/11 00:33:39;;;;;;;16.80;10.50;;;;;;;7.63;72.40;100334.33;103444;1297;107998;-80
2022/10/11 00:36:12;;;;;;;21.30;10.30;;;;;;;7.61;72.51;100333.50;103303;1290;138419;-83
2022/10/11 00:38:41;;;;;;;14.10;9.90;;;;;;;7.61;72.53;100336.98;103449;1293;97973;-84
2022/10/11 00:41:12;;;;;;;15.70;9.50;;;;;;;7.57;72.47;100334.45;103352;1293;138422;-80
2022/10/11 00:43:41;;;;;;;20.10;10.30;;;;;;;7.54;72.61;100335.89;103482;1293;111563;-84
2022/10/11 00:46:30;;;;;;;25.10;10.30;;;;;;;7.52;72.55;100335.39;103728;1291;108609;-87
2022/10/11 00:49:04;;;;;;;18.90;10.00;;;;;;;7.51;72.66;100333.68;103291;1287;140264;-87
2022/10/11 00:51:42;;;;;;;22.20;10.60;;;;;;;7.50;72.79;100323.67;103438;1291;97992;-81
2022/10/11 00:54:16;;;;;;;14.70;9.30;;;;;;;7.50;72.76;100326.25;103355;1293;138742;-86
2022/10/11 00:56:50;;;;;;;17.40;9.30;;;;;;;7.51;72.83;100322.25;103475;1292;110389;-87
2022/10/11 00:59:23;;;;;;;17.40;9.90;;;;;;;7.51;72.74;100321.21;103430;1293;138453;-82
2022/10/11 01:01:53;;;;;;;19.10;10.70;;;;;;;7.50;72.81;100317.96;103421;1298;108750;-84
2022/10/11 01:04:22;;;;;;;19.60;9.90;;;;;;;7.49;72.85;100315.55;103426;1297;97839;-83
2022/10/11 01:06:51;;;;;;;19.40;10.50;;;;;;;7.49;73.00;100312.10;103354;1293;138051;-82
2022/10/11 01:09:20;;;;;;;17.60;9.90;;;;;;;7.47;72.85;100309.36;103468;1293;111098;-83
2022/10/11 01:11:51;;;;;;;17.80;10.00;;;;;;;7.45;72.99;100304.37;103351;1292;140081;-83
2022/10/11 01:14:56;;;;;;;16.70;10.50;;;;;;;7.45;72.97;100304.05;103502;1301;107625;-85
2022/10/11 01:17:33;;;;;;;22.10;10.60;;;;;;;7.42;73.06;100302.53;103376;1290;138606;-86
2022/10/11 01:20:37;;;;;;;18.10;9.90;;;;;;;7.40;73.11;100298.25;103514;1293;97701;-86
2022/10/11 01:23:52;;;;;;;21.10;10.20;;;;;;;7.39;73.10;100302.43;103339;1297;139088;-86
2022/10/11 01:26:51;;;;;;;21.80;10.40;;;;;;;7.38;73.37;100300.04;103512;1297;108500;-86
2022/10/11 01:29:35;;;;;;;21.10;10.80;;;;;;;7.38;73.45;100300.38;103617;1284;138576;-86
2022/10/11 01:32:14;;;;;;;19.10;10.30;;;;;;;7.39;73.54;100294.98;103946;1293;97949;-86
2022/10/11 01:34:54;;;;;;;21.50;10.70;;;;;;;7.41;73.55;100292.70;103523;1291;97812;-87
2022/10/11 01:37:29;;;;;;;17.80;10.20;;;;;;;7.45;73.70;100287.27;103668;1293;111912;-85
2022/10/11 01:40:02;;;;;;;19.00;10.40;;;;;;;7.48;73.64;100283.39;103584;1297;108914;-86
2022/10/11 01:42:31;;;;;;;17.70;10.40;;;;;;;7.51;73.73;100281.60;103477;1290;138491;-87
2022/10/11 01:45:01;;;;;;;20.30;10.30;;;;;;;7.53;73.60;100283.98;103398;1293;99359;-88
2022/10/11 01:47:29;;;;;;;18.60;9.30;;;;;;;7.54;73.64;100287.60;103437;1291;138496;-80
2022/10/11 01:50:00;;;;;;;18.80;11.00;;;;;;;7.56;73.54;100286.19;103498;1293;111236;-88
2022/10/11 01:52:33;;;;;;;17.20;10.30;;;;;;;7.57;73.62;100286.17;103728;1288;107506;-88
2022/10/11 01:55:15;;;;;;;16.90;10.40;;;;;;;7.58;73.55;100287.02;103963;1291;138697;-85
2022/10/11 01:58:13;;;;;;;16.90;10.20;;;;;;;7.59;73.55;100291.84;103418;1294;97846;-85
2022/10/11 02:00:51;;;;;;;18.30;10.20;;;;;;;7.58;73.52;100282.35;103510;1299;138469;-83
2022/10/11 02:03:33;;;;;;;18.80;10.60;;;;;;;7.58;73.60;100279.73;103507;1301;110782;-84
2022/10/11 02:06:07;;;;;;;24.30;11.20;;;;;;;7.60;73.70;100277.64;103257;1295;137881;-83
2022/10/11 02:08:49;;;;;;;19.30;10.10;;;;;;;7.63;73.77;100279.31;103439;1285;107169;-84
2022/10/11 02:11:24;;;;;;;17.40;10.80;;;;;;;7.65;73.66;100275.98;103343;1295;139436;-81
2022/10/11 02:13:59;;;;;;;18.20;10.50;;;;;;;7.66;73.56;100276.83;103501;1301;97710;-82
2022/10/11 02:16:41;;;;;;;23.90;10.70;;;;;;;7.66;73.64;100276.65;103584;1293;112027;-85
2022/10/11 02:19:14;;;;;;;19.70;10.50;;;;;;;7.66;73.68;100270.05;103571;1292;138290;-86
2022/10/11 02:21:47;;;;;;;16.30;10.40;;;;;;;7.67;73.83;100268.99;103744;1299;107471;-82
2022/10/11 02:24:18;;;;;;;22.80;11.40;;;;;;;7.69;73.83;100266.02;103904;1292;138524;-83
2022/10/11 02:26:53;;;;;;;16.50;11.20;;;;;;;7.71;73.73;100265.81;103508;1292;97895;-84
2022/10/11 02:29:25;;;;;;;18.80;11.30;;;;;;;7.73;73.92;100264.40;103384;1294;138444;-87
2022/10/11 02:31:57;;;;;;;18.90;11.60;;;;;;;7.74;73.89;100274.75;103872;1284;108620;-81
2022/10/11 02:34:32;;;;;;;22.00;11.90;;;;;;;7.77;73.99;100273.30;103749;1301;108857;-82
2022/10/11 02:37:08;;;;;;;15.80;10.60;;;;;;;7.79;73.85;100271.70;103575;1300;138457;-86
2022/10/11 02:39:41;;;;;;;22.50;11.40;;;;;;;7.83;73.85;100271.27;103525;1301;97926;-85
2022/10/11 02:42:16;;;;;;;18.20;10.90;;;;;;;7.85;73.97;100273.64;103420;1290;139908;-83
2022/10/11 02:44:58;;;;;;;20.50;11.50;;;;;;;7.88;73.95;100277.39;103644;1290;108852;-83
2022/10/11 02:47:29;;;;;;;21.40;12.00;;;;;;;7.89;73.88;100278.08;103522;1295;139532;-81
2022/10/11 02:49:58;;;;;;;19.40;11.00;;;;;;;7.91;74.08;100274.94;103488;1295;97837;-83
2022/10/11 02:52:27;;;;;;;17.40;11.40;;;;;;;7.92;74.05;100277.52;103427;1290;97827;-83
2022/10/11 02:54:55;;;;;;;18.10;11.90;;;;;;;7.93;74.18;100279.55;103387;1300;138606;-81
2022/10/11 02:57:24;;;;;;;20.00;11.50;;;;;;;7.96;74.16;100279.84;103492;1293;108397;-82
2022/10/11 02:59:53;;;;;;;19.80;11.30;;;;;;;7.97;74.07;100273.95;103410;1298;138488;-81
2022/10/11 03:02:22;;;;;;;19.60;12.10;;;;;;;7.99;74.19;100278.91;103650;1301;97663;-82
2022/10/11 03:04:51;;;;;;;21.40;12.00;;;;;;;8.02;74.18;100282.31;103611;1293;98400;-84
2022/10/11 03:07:20;;;;;;;21.10;12.20;;;;;;;8.02;74.13;100280.75;104503;1291;111489;-81
2022/10/11 03:09:49;;;;;;;20.70;12.00;;;;;;;8.03;74.20;100283.84;104008;1291;107292;-85
2022/10/11 03:12:17;;;;;;;18.90;12.10;;;;;;;8.05;74.27;100287.95;103327;1301;138541;-82
2022/10/11 03:14:46;;;;;;;19.80;12.00;;;;;;;8.08;74.26;100283.77;103492;1292;97931;-82
2022/10/11 03:17:15;;;;;;;21.80;12.00;;;;;;;8.10;74.28;100291.16;103381;1300;138436;-82
2022/10/11 03:20:05;;;;;;;24.70;12.90;;;;;;;8.13;74.42;100292.83;103398;1296;110129;-81
2022/10/11 03:22:34;;;;;;;20.10;12.40;;;;;;;8.14;74.32;100291.23;103599;1297;107590;-81
2022/10/11 03:25:04;;;;;;;17.90;12.50;;;;;;;8.17;74.48;100289.44;103713;1293;138360;-82
2022/10/11 03:27:33;;;;;;;20.00;12.30;;;;;;;8.21;74.71;100289.70;103539;1295;97846;-80
2022/10/11 03:30:03;;;;;;;21.00;12.70;;;;;;;8.25;74.84;100293.25;103539;1294;139436;-82
2022/10/11 03:32:32;;;;;;;22.20;12.40;;;;;;;8.29;74.93;100297.15;103607;1300;112006;-81
2022/10/11 03:35:01;;;;;;;19.20;13.00;;;;;;;8.34;74.97;100293.59;103413;1300;138698;-80
2022/10/11 03:37:30;;;;;;;20.20;13.10;;;;;;;8.38;74.96;100296.27;103348;1302;107492;-81
2022/10/11 03:39:59;;;;;;;20.70;13.40;;;;;;;8.42;75.00;100296.36;103544;1294;97858;-82
2022/10/11 03:42:28;;;;;;;21.40;12.90;;;;;;;8.46;75.02;100305.13;103356;1290;138461;-82
2022/10/11 03:44:58;;;;;;;19.40;12.90;;;;;;;8.50;75.12;100307.64;103676;1295;110788;-82
2022/10/11 03:47:27;;;;;;;21.20;13.30;;;;;;;8.54;75.29;100302.34;103891;1291;138967;-82
2022/10/11 03:49:56;;;;;;;17.70;13.00;;;;;;;8.56;75.40;100303.67;103697;1297;108834;-83
2022/10/11 03:52:25;;;;;;;24.00;13.10;;;;;;;8.60;75.62;100303.22;103608;1301;97833;-82
2022/10/11 03:54:53;;;;;;;20.60;13.40;;;;;;;8.66;75.73;100306.58;103748;1301;139409;-83
2022/10/11 03:57:22;;;;;;;22.20;12.70;;;;;;;8.70;75.68;100310.29;103597;1302;110716;-79
2022/10/11 03:59:51;;;;;;;18.70;13.50;;;;;;;8.72;75.74;100303.29;103398;1295;138634;-80
2022/10/11 04:02:20;;;;;;;23.80;13.90;;;;;;;8.73;75.70;100304.99;103835;1293;106100;-81
2022/10/11 04:04:49;;;;;;;21.60;12.90;;;;;;;8.76;75.69;100309.60;103460;1298;97833;-83
2022/10/11 04:07:18;;;;;;;21.40;13.90;;;;;;;8.79;75.77;100311.97;103388;1297;140469;-84
2022/10/11 04:09:47;;;;;;;22.40;13.70;;;;;;;8.80;75.80;100310.39;103505;1300;112183;-82
2022/10/11 04:12:16;;;;;;;20.70;13.30;;;;;;;8.83;75.92;100310.67;103363;1290;138824;-85
2022/10/11 04:14:45;;;;;;;22.00;13.10;;;;;;;8.86;75.94;100315.45;103478;1298;107713;-83
2022/10/11 04:17:13;;;;;;;22.30;14.10;;;;;;;8.88;76.06;100314.17;103814;1297;138724;-82
2022/10/11 04:19:42;;;;;;;23.20;14.30;;;;;;;8.91;76.03;100315.13;103512;1297;97712;-82
2022/10/11 04:22:11;;;;;;;22.20;13.60;;;;;;;8.93;76.02;100316.30;103402;1299;111028;-83
2022/10/11 04:24:40;;;;;;;21.40;13.20;;;;;;;8.95;76.13;100315.39;103361;1290;139164;-82
2022/10/11 04:27:09;;;;;;;26.70;14.20;;;;;;;8.98;76.16;100311.00;103329;1293;106840;-82
2022/10/11 04:29:38;;;;;;;26.50;14.20;;;;;;;8.99;76.23;100311.66;103332;1284;138734;-82
2022/10/11 04:32:07;;;;;;;22.60;13.90;;;;;;;9.02;76.39;100314.71;104141;1305;97194;-82
2022/10/11 04:34:37;;;;;;;19.80;14.20;;;;;;;9.05;76.38;100314.29;103580;1296;110261;-82
2022/10/11 04:37:05;;;;;;;25.00;13.90;;;;;;;9.08;76.38;100318.71;103348;1293;138618;-82
2022/10/11 04:39:34;;;;;;;23.40;14.30;;;;;;;9.10;76.44;100323.51;103508;1299;106690;-80
2022/10/11 04:42:03;;;;;;;22.20;13.20;;;;;;;9.13;76.52;100328.83;103457;1296;138706;-82
2022/10/11 04:44:32;;;;;;;22.00;14.90;;;;;;;9.15;76.44;100330.16;103504;1299;97841;-81
2022/10/11 04:47:01;;;;;;;20.90;14.30;;;;;;;9.16;76.63;100336.05;103415;1295;140181;-81
2022/10/11 04:49:30;;;;;;;23.30;14.80;;;;;;;9.18;76.74;100335.48;103533;1300;107089;-80
2022/10/11 04:51:59;;;;;;;22.40;14.10;;;;;;;9.21;76.61;100336.28;103528;1295;107293;-80
2022/10/11 04:54:28;;;;;;;21.20;14.60;;;;;;;9.23;76.70;100335.36;103885;1300;138563;-80
2022/10/11 04:56:57;;;;;;;22.90;14.40;;;;;;;9.23;76.67;100333.25;103539;1299;97864;-80
2022/10/11 04:59:26;;;;;;;20.50;14.30;;;;;;;9.25;76.64;100339.30;103907;1298;138670;-80
2022/10/11 05:01:55;;;;;;;21.90;14.90;;;;;;;9.24;76.80;100336.54;103635;1297;108094;-81
2022/10/11 05:04:24;;;;;;;23.00;15.30;;;;;;;9.24;76.71;100344.34;103493;1299;107647;-81
2022/10/11 05:06:53;;;;;;;23.90;14.40;;;;;;;9.23;76.68;100347.67;103761;1289;138540;-80
2022/10/11 05:09:22;;;;;;;24.70;15.30;;;;;;;9.23;76.73;100354.79;103533;1298;98044;-81
2022/10/11 05:11:50;;;;;;;21.50;15.00;;;;;;;9.23;76.80;100352.17;103466;1299;138654;-82
2022/10/11 05:14:19;;;;;;;24.70;15.10;;;;;;;9.22;76.94;100356.89;103536;1297;107849;-82
2022/10/11 05:16:48;;;;;;;24.10;15.50;;;;;;;9.23;76.91;100359.30;103553;1305;108871;-82
2022/10/11 05:19:16;;;;;;;20.90;15.20;;;;;;;9.23;77.08;100365.02;103392;1299;139031;-82
2022/10/11 05:21:46;;;;;;;28.70;15.80;;;;;;;9.23;77.10;100366.05;103514;1291;97838;-81
2022/10/11 05:24:14;;;;;;;21.90;15.30;;;;;;;9.24;77.19;100370.19;103416;1292;138485;-81
2022/10/11 05:26:43;;;;;;;26.70;16.20;;;;;;;9.23;77.30;100365.70;103480;1294;107942;-82
2022/10/11 05:29:12;;;;;;;25.30;16.30;;;;;;;9.25;77.38;100364.98;103382;1290;139820;-82
2022/10/11 05:31:42;;;;;;;24.50;16.10;;;;;;;9.26;77.33;100367.72;103584;1298;97823;-81
2022/10/11 05:34:11;;;;;;;27.10;16.50;;;;;;;9.27;77.36;100369.07;103465;1300;98952;-81
2022/10/11 05:36:39;;;;;;;22.90;16.50;;;;;;;9.29;77.49;100373.88;103432;1297;138832;-81
2022/10/11 05:39:08;;;;;;;25.30;16.30;;;;;;;9.31;77.51;100379.03;103528;1297;108044;-82
2022/10/11 05:41:37;;;;;;;27.90;17.20;;;;;;;9.32;77.51;100378.98;103283;1290;139692;-81
2022/10/11 05:44:08;;;;;;;24.00;17.90;;;;;;;9.36;77.54;100382.21;103379;1300;97864;-82
2022/10/11 05:46:38;;;;;;;22.90;16.50;;;;;;;9.41;77.54;100387.65;103513;1297;97709;-81
2022/10/11 05:49:07;;;;;;;26.70;16.60;;;;;;;9.45;77.46;100392.91;103333;1291;138427;-82
2022/10/11 05:51:35;;;;;;;24.90;16.80;;;;;;;9.48;77.50;100384.67;103403;1301;108435;-79
2022/10/11 05:54:07;;;;;;;27.40;16.70;;;;;;;9.50;77.34;100384.98;103341;1293;138620;-81
2022/10/11 05:56:38;;;;;;;25.70;16.90;;;;;;;9.52;77.54;100384.92;103471;1290;98000;-79
2022/10/11 05:59:07;;;;;;;22.50;16.70;;;;;;;9.59;77.44;100387.02;103305;1291;138688;-79
2022/10/11 06:01:36;;;;;;;25.30;16.80;;;;;;;9.77;77.58;100389.83;103426;1290;110875;-79
2022/10/11 06:04:05;;;;;;;23.60;16.60;;;;;;;10.03;77.39;100403.02;103438;1293;107430;-80
2022/10/11 06:06:34;;;;;;;27.70;15.80;;;;;;;10.34;77.24;100409.84;103182;1293;138992;-80
2022/10/11 06:09:05;;;;;;;23.90;15.80;;;;;;;10.65;76.66;100411.52;103320;1297;97929;-80
2022/10/11 06:11:35;;;;;;;22.70;15.60;;;;;;;10.98;76.08;100411.39;102981;1299;139048;-81
2022/10/11 06:14:04;;;;;;;25.00;16.10;;;;;;;11.33;75.45;100411.13;103186;1293;110642;-82
2022/10/11 06:16:33;;;;;;;27.70;14.60;;;;;;;11.71;74.94;100411.45;103318;1294;108162;-83
2022/10/11 06:19:02;;;;;;;24.70;14.30;;;;;;;12.17;74.06;100420.84;103221;1301;139007;-83
2022/10/11 06:21:31;;;;;;;21.90;14.60;;;;;;;12.65;73.33;100426.19;103260;1299;97853;-81
2022/10/11 06:24:01;;;;;;;20.10;13.50;;;;;;;13.21;72.05;100431.90;103240;1300;138887;-82
2022/10/11 06:26:31;;;;;;;20.50;14.10;;;;;;;13.79;70.83;100430.91;103405;1292;110294;-84
2022/10/11 06:29:00;;;;;;;20.50;13.80;;;;;;;14.29;69.59;100442.88;103236;1290;140686;-84
2022/10/11 06:31:30;;;;;;;17.50;13.60;;;;;;;14.74;69.20;100448.92;103336;1299;107061;-84
2022/10/11 06:34:00;;;;;;;13.90;8.80;;;;;;;15.11;67.85;100450.02;103317;1294;97811;-83
2022/10/11 06:36:29;;;;;;;21.80;13.40;;;;;;;15.36;66.77;100450.17;103082;1300;138690;-84
2022/10/11 06:39:00;;;;;;;19.30;12.60;;;;;;;15.88;66.27;100451.31;103184;1295;110802;-83
2022/10/11 06:41:30;;;;;;;16.50;12.50;;;;;;;16.66;65.42;100451.45;103193;1285;138963;-82
2022/10/11 06:43:59;;;;;;;17.50;12.70;;;;;;;17.33;64.08;100453.89;103174;1290;105902;-84
2022/10/11 06:46:30;;;;;;;17.00;12.40;;;;;;;17.67;62.61;100459.84;103266;1300;98273;-83
2022/10/11 06:48:59;;;;;;;19.00;13.00;;;;;;;17.87;61.89;100463.42;103140;1290;138604;-82
2022/10/11 06:51:29;;;;;;;17.40;12.80;;;;;;;17.92;61.23;100460.16;103239;1292;110280;-84
2022/10/11 06:54:00;;;;;;;19.70;13.10;;;;;;;17.95;60.85;100459.05;104768;1302;142425;-86
2022/10/11 06:56:30;;;;;;;17.80;12.80;;;;;;;18.13;61.03;100462.77;104865;1289;107851;-86
2022/10/11 06:59:00;;;;;;;19.70;13.10;;;;;;;18.36;60.31;100467.00;104726;1292;139607;-84
2022/10/11 07:01:29;;;;;;;20.30;12.40;;;;;;;18.48;60.09;100474.02;104902;1292;97271;-85
2022/10/11 07:04:00;;;;;;;19.30;12.00;;;;;;;18.61;59.40;100478.33;104893;1293;111675;-86
2022/10/11 07:06:30;;;;;;;21.90;13.30;;;;;;;18.47;58.98;100479.88;104417;1300;138997;-85
2022/10/11 07:09:00;;;;;;;14.90;12.40;;;;;;;18.24;58.51;100481.27;103296;1301;109147;-85
2022/10/11 07:11:29;;;;;;;19.80;12.10;;;;;;;18.01;58.67;100487.08;103233;1307;138545;-84
2022/10/11 07:14:00;;;;;;;23.30;12.70;;;;;;;17.92;58.79;100495.34;103665;1295;97736;-86
2022/10/11 07:16:30;;;;;;;17.30;12.30;;;;;;;17.88;59.00;100495.06;104179;1294;112524;-87
2022/10/11 07:19:00;;;;;;;19.30;12.50;;;;;;;17.94;58.97;100498.89;103303;1290;138441;-86
2022/10/11 07:21:31;;;;;;;19.80;12.70;;;;;;;17.95;58.84;100504.14;103326;1301;107149;-86
2022/10/11 07:24:01;;;;;;;17.00;12.10;;;;;;;17.71;58.42;100507.44;103115;1302;138122;-84
2022/10/11 07:26:30;;;;;;;17.40;12.10;;;;;;;17.45;58.96;100512.95;103349;1300;97832;-85
2022/10/11 07:29:08;;;;;;;18.10;12.30;;;;;;;17.40;59.08;100515.31;104835;1301;138018;-85
2022/10/11 07:31:40;;;;;;;17.40;12.60;;;;;;;17.54;59.18;100523.91;103883;1299;109004;-84
2022/10/11 07:34:09;;;;;;;17.60;13.30;;;;;;;17.60;58.85;100528.48;103317;1301;108662;-85
2022/10/11 07:36:38;;;;;;;18.20;14.10;;;;;;;17.62;58.95;100529.09;103292;1301;138523;-86
2022/10/11 07:39:07;;;;;;;16.70;11.70;;;;;;;17.66;58.68;100533.75;103383;1301;97840;-87
2022/10/11 07:41:37;;;;;;;19.10;12.30;;;;;;;17.62;58.48;100535.73;103566;1300;138595;-83
2022/10/11 07:44:13;;;;;;;18.90;13.20;;;;;;;17.51;58.59;100543.89;103368;1294;107791;-86
2022/10/11 07:46:41;;;;;;;16.70;12.80;;;;;;;17.40;58.58;100544.18;103364;1298;108393;-85
2022/10/11 07:49:10;;;;;;;20.50;12.90;;;;;;;17.16;58.31;100542.72;103240;1301;138002;-84
2022/10/11 07:51:39;;;;;;;19.70;13.60;;;;;;;16.96;58.68;100551.19;103404;1285;98314;-84
2022/10/11 07:54:08;;;;;;;18.50;12.50;;;;;;;16.82;58.75;100556.47;103294;1292;138568;-86
2022/10/11 07:56:37;;;;;;;16.80;12.30;;;;;;;16.66;59.15;100561.52;103413;1291;106975;-86
2022/10/11 07:59:07;;;;;;;17.10;11.30;;;;;;;16.50;59.24;100563.90;103285;1290;139322;-87
2022/10/11 08:01:35;;;;;;;17.30;12.10;;;;;;;16.26;59.31;100568.84;103427;1291;97848;-87
2022/10/11 08:04:04;;;;;;;15.70;12.50;;;;;;;16.03;59.73;100569.13;103417;1291;98367;-89
2022/10/11 08:06:35;;;;;;;18.70;11.80;;;;;;;15.82;60.08;100578.56;103299;1290;139715;-87
2022/10/11 08:09:05;;;;;;;17.40;12.00;;;;;;;15.66;60.39;100575.83;103384;1300;108853;-86
2022/10/11 08:11:36;;;;;;;16.60;12.00;;;;;;;15.47;60.58;100582.14;103330;1291;138280;-87
2022/10/11 08:14:07;;;;;;;20.50;12.30;;;;;;;15.29;60.95;100583.32;103445;1297;97849;-86
2022/10/11 08:16:38;;;;;;;17.20;12.00;;;;;;;15.12;61.23;100582.39;103491;1301;97834;-89
2022/10/11 08:19:07;;;;;;;21.60;12.50;;;;;;;14.94;61.47;100587.02;103325;1285;140426;-85
2022/10/11 08:21:36;;;;;;;15.90;11.90;;;;;;;14.79;61.94;100591.02;103416;1293;107908;-86
2022/10/11 08:24:06;;;;;;;18.20;12.30;;;;;;;14.73;62.33;100593.19;103288;1291;139748;-90
2022/10/11 08:26:35;;;;;;;17.50;12.00;;;;;;;14.69;62.55;100590.59;103350;1298;97844;-73
2022/10/11 08:29:04;;;;;;;19.00;12.10;;;;;;;14.72;63.05;100593.06;103263;1291;138838;-74
2022/10/11 08:31:33;;;;;;;18.00;11.60;;;;;;;14.76;63.22;100589.25;103444;1294;111191;-74
2022/10/11 08:34:02;;;;;;;19.40;11.70;;;;;;;14.92;63.33;100590.11;103368;1297;108710;-73
2022/10/11 08:36:32;;;;;;;16.80;10.20;;;;;;;15.30;63.05;100590.29;103247;1298;139981;-74
2022/10/11 08:39:01;;;;;;;14.90;11.00;;;;;;;15.72;62.74;100594.63;103434;1288;97834;-74
2022/10/11 08:41:36;;;;;;;16.00;10.10;;;;;;;16.18;62.34;100593.60;103335;1300;139399;-73
2022/10/11 08:44:33;;;;;;;14.80;9.70;;;;;;;16.60;61.77;100589.73;103321;1301;113222;-76
2022/10/11 08:47:26;;;;;;;21.90;9.80;;;;;;;16.85;60.74;100587.75;103291;1297;139294;-76
2022/10/11 08:49:55;;;;;;;14.10;9.40;;;;;;;17.05;60.46;100589.15;104926;1302;108349;-72
2022/10/11 08:52:30;;;;;;;16.60;10.20;;;;;;;17.06;59.77;100592.98;104986;1292;95829;-73
2022/10/11 08:55:05;;;;;;;16.20;9.50;;;;;;;17.15;59.92;100597.38;104858;1294;138038;-72
2022/10/11 08:57:36;;;;;;;14.90;8.90;;;;;;;17.47;59.59;100597.58;104797;1292;111333;-72
2022/10/11 09:00:12;;;;;;;14.30;9.50;;;;;;;17.88;59.09;100594.60;103276;1294;138324;-72
2022/10/11 09:02:47;;;;;;;14.80;8.20;;;;;;;18.21;58.29;100594.80;104994;1297;107614;-77
2022/10/11 09:05:44;;;;;;;11.10;7.70;;;;;;;18.33;57.37;100598.67;103828;1292;138188;-74
2022/10/11 09:08:21;;;;;;;15.20;7.70;;;;;;;18.14;56.90;100602.29;103424;1293;98325;-75
2022/10/11 09:10:59;;;;;;;11.80;7.70;;;;;;;18.03;56.98;100607.98;103378;1290;112188;-75
2022/10/11 09:13:48;;;;;;;11.20;7.80;;;;;;;18.02;56.75;100609.48;103385;1301;106957;-75
2022/10/11 09:16:27;;;;;;;12.80;7.70;;;;;;;17.85;56.93;100614.16;103378;1299;108130;-76
2022/10/11 09:19:24;;;;;;;13.50;8.90;;;;;;;17.66;56.89;100615.36;103232;1293;139772;-74
2022/10/11 09:22:05;;;;;;;11.00;7.70;;;;;;;17.50;57.18;100615.34;103355;1292;98314;-73
2022/10/11 09:24:56;;;;;;;14.80;7.90;;;;;;;17.27;57.17;100615.20;104023;1298;139559;-72
2022/10/11 09:27:30;;;;;;;10.50;7.00;;;;;;;16.99;57.45;100619.30;103350;1287;107986;-73
2022/10/11 09:30:22;;;;;;;11.00;7.20;;;;;;;16.75;57.62;100620.06;103266;1294;138031;-74
2022/10/11 09:33:02;;;;;;;9.50;6.50;;;;;;;16.52;57.84;100628.56;103425;1292;97824;-78
2022/10/11 09:35:35;;;;;;;13.40;7.20;;;;;;;16.33;58.10;100631.84;103423;1291;140056;-74
2022/10/11 09:38:10;;;;;;;12.20;6.80;;;;;;;16.21;58.57;100632.94;103454;1291;111985;-73
2022/10/11 09:40:53;;;;;;;11.00;7.20;;;;;;;16.18;58.85;100638.70;103632;1287;141256;-73
2022/10/11 09:43:22;;;;;;;14.10;7.30;;;;;;;16.20;59.17;100640.17;103363;1300;107954;-73
2022/10/11 09:45:51;;;;;;;9.40;6.40;;;;;;;16.22;59.20;100638.17;103394;1299;138184;-73
2022/10/11 09:48:24;;;;;;;10.80;6.70;;;;;;;16.23;59.04;100639.86;103350;1293;97729;-71
2022/10/11 09:50:57;;;;;;;12.10;6.80;;;;;;;16.21;59.12;100643.31;103429;1293;110475;-72
2022/10/11 09:53:50;;;;;;;13.30;6.10;;;;;;;16.16;59.23;100642.49;103289;1293;139518;-74
2022/10/11 09:56:20;;;;;;;10.60;6.40;;;;;;;16.07;59.33;100644.17;103391;1291;107477;-75
2022/10/11 09:59:05;;;;;;;9.00;5.40;;;;;;;16.00;59.21;100653.44;103221;1293;139501;-74
2022/10/11 10:01:33;;;;;;;7.90;4.50;;;;;;;15.89;58.99;100652.08;103390;1293;98323;-73
2022/10/11 10:04:11;;;;;;;9.90;4.90;;;;;;;15.74;58.81;100660.13;103260;1293;137764;-73
2022/10/11 10:06:40;;;;;;;8.50;4.40;;;;;;;15.82;59.23;100656.79;103393;1285;108232;-75
2022/10/11 10:09:25;;;;;;;9.70;4.70;;;;;;;16.03;59.44;100655.39;103308;1293;107140;-75
2022/10/11 10:11:55;;;;;;;7.60;4.10;;;;;;;16.63;59.54;100656.63;104265;1291;97817;-74
2022/10/11 10:14:28;;;;;;;10.90;3.90;;;;;;;17.27;59.18;100646.63;103348;1286;97904;-70
2022/10/11 10:17:05;;;;;;;8.30;4.10;;;;;;;17.88;58.14;100650.67;103224;1284;137805;-77
2022/10/11 10:19:40;;;;;;;8.20;3.20;;;;;;;18.30;56.95;100647.64;103368;1284;106998;-80
2022/10/11 10:22:19;;;;;;;10.10;3.70;;;;;;;18.46;55.95;100646.67;103260;1286;137999;-79
2022/10/11 10:24:50;;;;;;;4.50;3.10;;;;;;;18.55;55.49;100650.95;103200;1299;97848;-76
2022/10/11 10:27:23;;;;;;;5.40;3.20;;;;;;;18.49;55.14;100656.23;103401;1299;98316;-78
2022/10/11 10:30:11;;;;;;;5.80;2.80;;;;;;;18.33;54.37;100659.76;103410;1292;111261;-76
2022/10/11 10:32:48;;;;;;;7.60;3.30;;;;;;;18.16;54.35;100660.25;103406;1291;108096;-76
2022/10/11 10:35:28;;;;;;;7.40;3.10;;;;;;;18.39;54.46;100662.61;103263;1292;137736;-76
2022/10/11 10:38:06;;;;;;;9.00;2.90;;;;;;;18.85;54.66;100653.92;103304;1294;99418;-87
2022/10/11 10:40:38;;;;;;;;;;;;;;;19.21;53.45;100657.17;103282;1293;137897;-78
2022/10/11 10:43:14;;;;;;;7.70;3.20;;;;;;;19.17;52.48;100659.38;103747;1287;111386;-83
2022/10/11 10:46:08;;;;;;;3.70;2.70;;;;;;;18.97;51.91;100665.15;103243;1300;138114;-71
2022/10/11 10:48:47;;;;;;;6.70;2.50;;;;;;;18.68;51.68;100671.11;103266;1293;107548;-71
2022/10/11 10:51:47;;;;;;;8.70;2.80;;;;;;;18.32;51.67;100679.54;104821;1300;137966;-71
2022/10/11 10:54:30;;;;;;;6.60;3.10;;;;;;;17.97;51.83;100680.81;104355;1297;96034;-72
2022/10/11 10:57:02;;;;;;;7.70;3.20;;;;;;;17.81;52.19;100684.38;103336;1294;111533;-71
2022/10/11 11:00:01;;;;;;;7.40;2.80;;;;;;;17.61;52.21;100681.38;103290;1291;137900;-71
2022/10/11 11:02:41;;;;;;;4.00;2.10;;;;;;;17.52;52.66;100682.56;103000;1291;410642;-71
2022/10/11 11:05:22;;;;;;;7.00;2.40;;;;;;;17.60;52.29;100684.26;103277;1292;137797;-73
2022/10/11 11:07:57;;;;;;;3.60;2.10;;;;;;;17.73;52.47;100683.40;103239;1300;97741;-72
2022/10/11 11:10:33;;;;;;;4.50;2.20;;;;;;;17.74;51.98;100681.40;103208;1292;141568;-72
2022/10/11 11:13:17;;;;;;;5.40;2.20;;;;;;;17.68;51.43;100685.73;103394;1292;107085;-72
2022/10/11 11:15:55;;;;;;;6.30;2.40;;;;;;;17.51;51.18;100690.16;103209;1294;138034;-72
2022/10/11 11:18:35;;;;;;;5.30;2.20;;;;;;;17.51;51.47;100689.48;102803;1285;97845;-72
2022/10/11 11:21:26;;;;;;;6.20;2.20;;;;;;;17.68;52.09;100692.80;103066;1291;97868;-72
2022/10/11 11:24:06;;;;;;;4.90;2.20;;;;;;;17.98;52.40;100689.40;103461;1293;110761;-72
2022/10/11 11:26:40;;;;;;;6.80;2.70;;;;;;;18.32;51.90;100692.91;103417;1295;106991;-72
2022/10/11 11:29:25;;;;;;;6.40;2.00;;;;;;;18.53;51.07;100696.98;103245;1285;137683;-73
2022/10/11 11:32:07;;;;;;;4.50;1.80;;;;;;;18.58;50.80;100694.94;103391;1292;97837;-76